sensor_id;sensor_type;location;lat;lon;timestamp;P1;durP1;ratioP1;P2;durP2;ratioP2
61458;SDS011;47324;48.760;9.156;2022-08-21T00:01:47;3.47;;;1.67;;
61458;SDS011;47324;48.760;9.156;2022-08-21T00:04:13;5.63;;;2.15;;
61458;SDS011;47324;48.760;9.156;2022-08-21T00:06:39;4.47;;;2.10;;
61458;SDS011;47324;48.760;9.156;2022-08-21T00:09:06;4.97;;;1.90;;
61458;SDS011;47324;48.760;9.156;2022-08-21T00:11:33;6.63;;;1.95;;
61458;SDS011;47324;48.760;9.156;2022-08-21T00:14:00;5.55;;;1.98;;
61458;SDS011;47324;48.760;9.156;2022-08-21T00:16:27;5.13;;;2.10;;
61458;SDS011;47324;48.760;9.156;2022-08-21T00:18:53;4.63;;;2.17;;
61458;SDS011;47324;48.760;9.156;2022-08-21T00:21:19;5.43;;;2.15;;
61458;SDS011;47324;48.760;9.156;2022-08-21T00:23:45;4.32;;;2.10;;
61458;SDS011;47324;48.760;9.156;2022-08-21T00:26:11;6.13;;;1.60;;
61458;SDS011;47324;48.760;9.156;2022-08-21T00:28:37;5.57;;;2.38;;
61458;SDS011;47324;48.760;9.156;2022-08-21T00:31:03;4.57;;;2.08;;
61458;SDS011;47324;48.760;9.156;2022-08-21T00:33:32;4.53;;;1.75;;
61458;SDS011;47324;48.760;9.156;2022-08-21T00:35:59;5.22;;;1.92;;
61458;SDS011;47324;48.760;9.156;2022-08-21T00:38:25;3.03;;;1.70;;
61458;SDS011;47324;48.760;9.156;2022-08-21T00:40:52;3.78;;;2.13;;
61458;SDS011;47324;48.760;9.156;2022-08-21T00:43:24;5.30;;;2.20;;
61458;SDS011;47324;48.760;9.156;2022-08-21T00:45:53;6.78;;;2.63;;
61458;SDS011;47324;48.760;9.156;2022-08-21T00:48:20;4.30;;;1.98;;
61458;SDS011;47324;48.760;9.156;2022-08-21T00:50:50;7.20;;;2.15;;
61458;SDS011;47324;48.760;9.156;2022-08-21T00:53:21;5.72;;;2.03;;
61458;SDS011;47324;48.760;9.156;2022-08-21T00:55:47;4.63;;;2.00;;
61458;SDS011;47324;48.760;9.156;2022-08-21T00:58:13;5.10;;;2.00;;
61458;SDS011;47324;48.760;9.156;2022-08-21T01:00:40;3.75;;;1.88;;
61458;SDS011;47324;48.760;9.156;2022-08-21T01:03:10;4.68;;;1.90;;
61458;SDS011;47324;48.760;9.156;2022-08-21T01:05:39;4.05;;;2.08;;
61458;SDS011;47324;48.760;9.156;2022-08-21T01:08:05;5.43;;;2.53;;
61458;SDS011;47324;48.760;9.156;2022-08-21T01:10:32;3.42;;;1.85;;
61458;SDS011;47324;48.760;9.156;2022-08-21T01:12:59;5.80;;;2.15;;
61458;SDS011;47324;48.760;9.156;2022-08-21T01:15:27;3.88;;;1.88;;
61458;SDS011;47324;48.760;9.156;2022-08-21T01:17:56;4.95;;;1.77;;
61458;SDS011;47324;48.760;9.156;2022-08-21T01:20:22;4.32;;;1.70;;
61458;SDS011;47324;48.760;9.156;2022-08-21T01:22:48;4.07;;;2.20;;
61458;SDS011;47324;48.760;9.156;2022-08-21T01:25:15;4.53;;;2.28;;
61458;SDS011;47324;48.760;9.156;2022-08-21T01:27:43;5.22;;;2.20;;
61458;SDS011;47324;48.760;9.156;2022-08-21T01:30:11;12.15;;;2.50;;
61458;SDS011;47324;48.760;9.156;2022-08-21T01:32:40;5.22;;;2.00;;
61458;SDS011;47324;48.760;9.156;2022-08-21T01:35:07;5.65;;;2.10;;
61458;SDS011;47324;48.760;9.156;2022-08-21T01:37:33;5.13;;;2.30;;
61458;SDS011;47324;48.760;9.156;2022-08-21T01:39:59;5.43;;;1.83;;
61458;SDS011;47324;48.760;9.156;2022-08-21T01:42:25;4.18;;;2.13;;
61458;SDS011;47324;48.760;9.156;2022-08-21T01:44:51;3.78;;;1.65;;
61458;SDS011;47324;48.760;9.156;2022-08-21T01:47:18;4.30;;;1.73;;
61458;SDS011;47324;48.760;9.156;2022-08-21T01:49:44;5.15;;;1.85;;
61458;SDS011;47324;48.760;9.156;2022-08-21T01:52:11;5.85;;;2.05;;
61458;SDS011;47324;48.760;9.156;2022-08-21T01:54:37;4.57;;;1.90;;
61458;SDS011;47324;48.760;9.156;2022-08-21T01:57:04;7.43;;;2.00;;
61458;SDS011;47324;48.760;9.156;2022-08-21T01:59:30;4.55;;;1.95;;
61458;SDS011;47324;48.760;9.156;2022-08-21T02:01:57;4.25;;;2.08;;
61458;SDS011;47324;48.760;9.156;2022-08-21T02:04:23;4.45;;;2.00;;
61458;SDS011;47324;48.760;9.156;2022-08-21T02:06:49;3.75;;;2.03;;
61458;SDS011;47324;48.760;9.156;2022-08-21T02:09:16;5.15;;;1.63;;
61458;SDS011;47324;48.760;9.156;2022-08-21T02:11:42;4.88;;;2.13;;
61458;SDS011;47324;48.760;9.156;2022-08-21T02:14:09;3.40;;;2.08;;
61458;SDS011;47324;48.760;9.156;2022-08-21T02:16:37;4.80;;;2.15;;
61458;SDS011;47324;48.760;9.156;2022-08-21T02:19:04;2.85;;;2.00;;
61458;SDS011;47324;48.760;9.156;2022-08-21T02:21:30;5.40;;;2.22;;
61458;SDS011;47324;48.760;9.156;2022-08-21T02:23:57;5.20;;;2.20;;
61458;SDS011;47324;48.760;9.156;2022-08-21T02:26:23;5.32;;;2.38;;
61458;SDS011;47324;48.760;9.156;2022-08-21T02:28:49;6.43;;;2.33;;
61458;SDS011;47324;48.760;9.156;2022-08-21T02:31:15;6.13;;;1.98;;
61458;SDS011;47324;48.760;9.156;2022-08-21T02:33:41;7.45;;;2.20;;
61458;SDS011;47324;48.760;9.156;2022-08-21T02:36:07;4.18;;;1.98;;
61458;SDS011;47324;48.760;9.156;2022-08-21T02:38:34;6.10;;;2.00;;
61458;SDS011;47324;48.760;9.156;2022-08-21T02:41:04;5.60;;;2.22;;
61458;SDS011;47324;48.760;9.156;2022-08-21T02:43:31;4.70;;;2.58;;
61458;SDS011;47324;48.760;9.156;2022-08-21T02:45:57;5.80;;;2.42;;
61458;SDS011;47324;48.760;9.156;2022-08-21T02:48:25;4.80;;;2.10;;
61458;SDS011;47324;48.760;9.156;2022-08-21T02:50:59;5.88;;;2.35;;
61458;SDS011;47324;48.760;9.156;2022-08-21T02:53:28;4.70;;;2.30;;
61458;SDS011;47324;48.760;9.156;2022-08-21T02:55:56;4.55;;;2.25;;
61458;SDS011;47324;48.760;9.156;2022-08-21T02:58:24;5.93;;;2.03;;
61458;SDS011;47324;48.760;9.156;2022-08-21T03:00:53;3.53;;;1.92;;
61458;SDS011;47324;48.760;9.156;2022-08-21T03:03:20;4.95;;;2.20;;
61458;SDS011;47324;48.760;9.156;2022-08-21T03:05:47;4.20;;;1.92;;
61458;SDS011;47324;48.760;9.156;2022-08-21T03:08:14;5.35;;;1.98;;
61458;SDS011;47324;48.760;9.156;2022-08-21T03:10:42;3.53;;;1.88;;
61458;SDS011;47324;48.760;9.156;2022-08-21T03:13:09;4.70;;;2.20;;
61458;SDS011;47324;48.760;9.156;2022-08-21T03:15:36;5.32;;;2.17;;
61458;SDS011;47324;48.760;9.156;2022-08-21T03:18:02;5.15;;;1.85;;
61458;SDS011;47324;48.760;9.156;2022-08-21T03:20:30;4.90;;;2.25;;
61458;SDS011;47324;48.760;9.156;2022-08-21T03:22:57;6.88;;;2.40;;
61458;SDS011;47324;48.760;9.156;2022-08-21T03:25:24;4.28;;;1.98;;
61458;SDS011;47324;48.760;9.156;2022-08-21T03:27:51;3.97;;;2.17;;
61458;SDS011;47324;48.760;9.156;2022-08-21T03:30:18;4.93;;;2.17;;
61458;SDS011;47324;48.760;9.156;2022-08-21T03:32:46;4.53;;;1.98;;
61458;SDS011;47324;48.760;9.156;2022-08-21T03:35:13;4.25;;;2.10;;
61458;SDS011;47324;48.760;9.156;2022-08-21T03:37:39;5.13;;;2.40;;
61458;SDS011;47324;48.760;9.156;2022-08-21T03:40:06;5.68;;;2.00;;
61458;SDS011;47324;48.760;9.156;2022-08-21T03:42:34;7.13;;;2.55;;
61458;SDS011;47324;48.760;9.156;2022-08-21T03:45:00;5.55;;;2.33;;
61458;SDS011;47324;48.760;9.156;2022-08-21T03:47:26;3.75;;;1.75;;
61458;SDS011;47324;48.760;9.156;2022-08-21T03:49:52;5.70;;;1.98;;
61458;SDS011;47324;48.760;9.156;2022-08-21T03:52:19;6.13;;;2.05;;
61458;SDS011;47324;48.760;9.156;2022-08-21T03:54:45;4.60;;;2.05;;
61458;SDS011;47324;48.760;9.156;2022-08-21T03:57:11;6.65;;;2.22;;
61458;SDS011;47324;48.760;9.156;2022-08-21T03:59:38;5.43;;;2.30;;
61458;SDS011;47324;48.760;9.156;2022-08-21T04:02:05;3.47;;;1.52;;
61458;SDS011;47324;48.760;9.156;2022-08-21T04:04:32;4.38;;;2.38;;
61458;SDS011;47324;48.760;9.156;2022-08-21T04:06:59;5.53;;;2.28;;
61458;SDS011;47324;48.760;9.156;2022-08-21T04:09:25;5.53;;;2.78;;
61458;SDS011;47324;48.760;9.156;2022-08-21T04:11:51;5.72;;;2.60;;
61458;SDS011;47324;48.760;9.156;2022-08-21T04:14:18;4.82;;;2.35;;
61458;SDS011;47324;48.760;9.156;2022-08-21T04:16:44;5.05;;;2.50;;
61458;SDS011;47324;48.760;9.156;2022-08-21T04:19:10;5.00;;;2.22;;
61458;SDS011;47324;48.760;9.156;2022-08-21T04:21:38;3.85;;;2.10;;
61458;SDS011;47324;48.760;9.156;2022-08-21T04:24:06;4.22;;;2.15;;
61458;SDS011;47324;48.760;9.156;2022-08-21T04:26:33;5.20;;;2.28;;
61458;SDS011;47324;48.760;9.156;2022-08-21T04:29:00;9.05;;;2.70;;
61458;SDS011;47324;48.760;9.156;2022-08-21T04:31:26;5.25;;;2.30;;
61458;SDS011;47324;48.760;9.156;2022-08-21T04:33:54;3.03;;;2.00;;
61458;SDS011;47324;48.760;9.156;2022-08-21T04:36:20;3.65;;;2.05;;
61458;SDS011;47324;48.760;9.156;2022-08-21T04:38:46;6.00;;;2.80;;
61458;SDS011;47324;48.760;9.156;2022-08-21T04:41:12;8.07;;;2.50;;
61458;SDS011;47324;48.760;9.156;2022-08-21T04:43:38;4.18;;;2.20;;
61458;SDS011;47324;48.760;9.156;2022-08-21T04:46:05;3.00;;;1.90;;
61458;SDS011;47324;48.760;9.156;2022-08-21T04:48:31;4.63;;;2.45;;
61458;SDS011;47324;48.760;9.156;2022-08-21T04:51:09;5.78;;;2.47;;
61458;SDS011;47324;48.760;9.156;2022-08-21T04:53:58;4.40;;;2.70;;
61458;SDS011;47324;48.760;9.156;2022-08-21T04:56:47;5.93;;;2.58;;
61458;SDS011;47324;48.760;9.156;2022-08-21T04:59:26;6.25;;;2.15;;
61458;SDS011;47324;48.760;9.156;2022-08-21T05:01:56;4.78;;;2.25;;
61458;SDS011;47324;48.760;9.156;2022-08-21T05:04:23;8.88;;;2.60;;
61458;SDS011;47324;48.760;9.156;2022-08-21T05:06:50;7.93;;;2.90;;
61458;SDS011;47324;48.760;9.156;2022-08-21T05:09:17;5.25;;;2.08;;
61458;SDS011;47324;48.760;9.156;2022-08-21T05:11:44;6.63;;;2.78;;
61458;SDS011;47324;48.760;9.156;2022-08-21T05:14:10;4.75;;;2.35;;
61458;SDS011;47324;48.760;9.156;2022-08-21T05:16:37;4.88;;;2.20;;
61458;SDS011;47324;48.760;9.156;2022-08-21T05:19:06;4.95;;;2.47;;
61458;SDS011;47324;48.760;9.156;2022-08-21T05:21:33;5.43;;;2.50;;
61458;SDS011;47324;48.760;9.156;2022-08-21T05:24:00;6.20;;;2.47;;
61458;SDS011;47324;48.760;9.156;2022-08-21T05:26:26;5.80;;;2.70;;
61458;SDS011;47324;48.760;9.156;2022-08-21T05:28:52;7.55;;;3.10;;
61458;SDS011;47324;48.760;9.156;2022-08-21T05:31:18;4.65;;;2.35;;
61458;SDS011;47324;48.760;9.156;2022-08-21T05:33:44;5.50;;;2.60;;
61458;SDS011;47324;48.760;9.156;2022-08-21T05:36:10;7.18;;;2.85;;
61458;SDS011;47324;48.760;9.156;2022-08-21T05:38:36;7.32;;;2.75;;
61458;SDS011;47324;48.760;9.156;2022-08-21T05:41:02;4.82;;;2.60;;
61458;SDS011;47324;48.760;9.156;2022-08-21T05:43:28;5.82;;;2.60;;
61458;SDS011;47324;48.760;9.156;2022-08-21T05:45:54;4.22;;;2.22;;
61458;SDS011;47324;48.760;9.156;2022-08-21T05:48:21;5.57;;;2.53;;
61458;SDS011;47324;48.760;9.156;2022-08-21T05:50:48;3.50;;;2.33;;
61458;SDS011;47324;48.760;9.156;2022-08-21T05:53:16;4.97;;;2.60;;
61458;SDS011;47324;48.760;9.156;2022-08-21T05:55:43;4.97;;;2.38;;
61458;SDS011;47324;48.760;9.156;2022-08-21T05:58:09;5.68;;;2.83;;
61458;SDS011;47324;48.760;9.156;2022-08-21T06:00:36;5.75;;;2.60;;
61458;SDS011;47324;48.760;9.156;2022-08-21T06:03:02;4.07;;;2.35;;
61458;SDS011;47324;48.760;9.156;2022-08-21T06:05:28;5.93;;;2.40;;
61458;SDS011;47324;48.760;9.156;2022-08-21T06:07:54;6.03;;;2.60;;
61458;SDS011;47324;48.760;9.156;2022-08-21T06:10:20;6.90;;;2.63;;
61458;SDS011;47324;48.760;9.156;2022-08-21T06:12:47;5.00;;;2.10;;
61458;SDS011;47324;48.760;9.156;2022-08-21T06:15:18;5.15;;;2.15;;
61458;SDS011;47324;48.760;9.156;2022-08-21T06:17:45;6.05;;;2.20;;
61458;SDS011;47324;48.760;9.156;2022-08-21T06:20:11;6.10;;;2.70;;
61458;SDS011;47324;48.760;9.156;2022-08-21T06:22:36;5.88;;;2.65;;
61458;SDS011;47324;48.760;9.156;2022-08-21T06:25:03;6.88;;;2.95;;
61458;SDS011;47324;48.760;9.156;2022-08-21T06:27:29;6.75;;;2.67;;
61458;SDS011;47324;48.760;9.156;2022-08-21T06:29:55;4.13;;;2.13;;
61458;SDS011;47324;48.760;9.156;2022-08-21T06:32:22;4.68;;;2.25;;
61458;SDS011;47324;48.760;9.156;2022-08-21T06:34:48;5.60;;;2.97;;
61458;SDS011;47324;48.760;9.156;2022-08-21T06:37:14;5.55;;;2.45;;
61458;SDS011;47324;48.760;9.156;2022-08-21T06:39:40;4.95;;;2.22;;
61458;SDS011;47324;48.760;9.156;2022-08-21T06:42:12;5.85;;;2.33;;
61458;SDS011;47324;48.760;9.156;2022-08-21T06:44:39;6.25;;;2.42;;
61458;SDS011;47324;48.760;9.156;2022-08-21T06:47:05;5.65;;;2.58;;
61458;SDS011;47324;48.760;9.156;2022-08-21T06:49:31;6.47;;;2.35;;
61458;SDS011;47324;48.760;9.156;2022-08-21T06:51:57;5.88;;;2.45;;
61458;SDS011;47324;48.760;9.156;2022-08-21T06:54:23;5.75;;;2.35;;
61458;SDS011;47324;48.760;9.156;2022-08-21T06:56:49;6.03;;;2.45;;
61458;SDS011;47324;48.760;9.156;2022-08-21T06:59:14;6.25;;;2.92;;
61458;SDS011;47324;48.760;9.156;2022-08-21T07:01:40;9.02;;;2.83;;
61458;SDS011;47324;48.760;9.156;2022-08-21T07:04:07;4.30;;;2.38;;
61458;SDS011;47324;48.760;9.156;2022-08-21T07:06:33;5.00;;;2.60;;
61458;SDS011;47324;48.760;9.156;2022-08-21T07:08:59;7.85;;;2.70;;
61458;SDS011;47324;48.760;9.156;2022-08-21T07:11:26;4.60;;;2.53;;
61458;SDS011;47324;48.760;9.156;2022-08-21T07:13:52;5.38;;;2.95;;
61458;SDS011;47324;48.760;9.156;2022-08-21T07:16:20;6.28;;;2.88;;
61458;SDS011;47324;48.760;9.156;2022-08-21T07:18:46;3.45;;;1.98;;
61458;SDS011;47324;48.760;9.156;2022-08-21T07:21:12;6.00;;;2.83;;
61458;SDS011;47324;48.760;9.156;2022-08-21T07:23:45;6.22;;;2.92;;
61458;SDS011;47324;48.760;9.156;2022-08-21T07:26:15;7.90;;;2.70;;
61458;SDS011;47324;48.760;9.156;2022-08-21T07:28:41;7.53;;;2.70;;
61458;SDS011;47324;48.760;9.156;2022-08-21T07:31:08;5.18;;;2.35;;
61458;SDS011;47324;48.760;9.156;2022-08-21T07:33:35;7.28;;;2.78;;
61458;SDS011;47324;48.760;9.156;2022-08-21T07:36:02;7.07;;;3.03;;
61458;SDS011;47324;48.760;9.156;2022-08-21T07:38:28;5.82;;;3.22;;
61458;SDS011;47324;48.760;9.156;2022-08-21T07:40:55;5.50;;;2.63;;
61458;SDS011;47324;48.760;9.156;2022-08-21T07:43:22;7.93;;;3.80;;
61458;SDS011;47324;48.760;9.156;2022-08-21T07:45:48;7.25;;;3.17;;
61458;SDS011;47324;48.760;9.156;2022-08-21T07:48:17;7.28;;;3.22;;
61458;SDS011;47324;48.760;9.156;2022-08-21T07:50:43;8.18;;;2.72;;
61458;SDS011;47324;48.760;9.156;2022-08-21T07:53:09;7.20;;;3.50;;
61458;SDS011;47324;48.760;9.156;2022-08-21T07:55:35;5.70;;;3.20;;
61458;SDS011;47324;48.760;9.156;2022-08-21T07:58:01;5.72;;;3.00;;
61458;SDS011;47324;48.760;9.156;2022-08-21T08:00:27;8.00;;;3.40;;
61458;SDS011;47324;48.760;9.156;2022-08-21T08:02:56;6.63;;;3.00;;
61458;SDS011;47324;48.760;9.156;2022-08-21T08:05:25;6.05;;;3.78;;
61458;SDS011;47324;48.760;9.156;2022-08-21T08:07:52;7.78;;;3.50;;
61458;SDS011;47324;48.760;9.156;2022-08-21T08:10:19;5.57;;;2.75;;
61458;SDS011;47324;48.760;9.156;2022-08-21T08:12:45;9.93;;;3.33;;
61458;SDS011;47324;48.760;9.156;2022-08-21T08:15:16;9.05;;;3.55;;
61458;SDS011;47324;48.760;9.156;2022-08-21T08:17:47;6.07;;;3.25;;
61458;SDS011;47324;48.760;9.156;2022-08-21T08:20:14;7.10;;;3.53;;
61458;SDS011;47324;48.760;9.156;2022-08-21T08:22:41;6.90;;;2.80;;
61458;SDS011;47324;48.760;9.156;2022-08-21T08:25:08;6.03;;;3.03;;
61458;SDS011;47324;48.760;9.156;2022-08-21T08:27:36;9.13;;;3.65;;
61458;SDS011;47324;48.760;9.156;2022-08-21T08:30:03;7.95;;;4.03;;
61458;SDS011;47324;48.760;9.156;2022-08-21T08:32:31;5.78;;;3.45;;
61458;SDS011;47324;48.760;9.156;2022-08-21T08:34:57;5.75;;;3.42;;
61458;SDS011;47324;48.760;9.156;2022-08-21T08:37:23;5.32;;;3.40;;
61458;SDS011;47324;48.760;9.156;2022-08-21T08:39:49;11.38;;;2.85;;
61458;SDS011;47324;48.760;9.156;2022-08-21T08:42:36;7.30;;;4.32;;
61458;SDS011;47324;48.760;9.156;2022-08-21T08:45:04;7.22;;;3.42;;
61458;SDS011;47324;48.760;9.156;2022-08-21T08:47:31;10.27;;;3.67;;
61458;SDS011;47324;48.760;9.156;2022-08-21T08:52:33;6.45;;;3.45;;
61458;SDS011;47324;48.760;9.156;2022-08-21T08:57:42;6.50;;;3.45;;
61458;SDS011;47324;48.760;9.156;2022-08-21T09:00:14;6.55;;;3.63;;
61458;SDS011;47324;48.760;9.156;2022-08-21T09:02:42;7.90;;;3.95;;
61458;SDS011;47324;48.760;9.156;2022-08-21T09:05:09;8.18;;;3.63;;
61458;SDS011;47324;48.760;9.156;2022-08-21T09:11:07;9.07;;;3.78;;
61458;SDS011;47324;48.760;9.156;2022-08-21T09:13:43;11.32;;;4.38;;
61458;SDS011;47324;48.760;9.156;2022-08-21T09:22:13;5.40;;;2.95;;
61458;SDS011;47324;48.760;9.156;2022-08-21T09:24:54;7.05;;;3.20;;
61458;SDS011;47324;48.760;9.156;2022-08-21T09:27:33;10.50;;;4.80;;
61458;SDS011;47324;48.760;9.156;2022-08-21T09:29:59;5.97;;;3.25;;
61458;SDS011;47324;48.760;9.156;2022-08-21T09:32:29;9.40;;;3.70;;
61458;SDS011;47324;48.760;9.156;2022-08-21T09:34:57;8.32;;;4.55;;
61458;SDS011;47324;48.760;9.156;2022-08-21T09:37:24;7.10;;;4.35;;
61458;SDS011;47324;48.760;9.156;2022-08-21T09:39:50;7.03;;;3.60;;
61458;SDS011;47324;48.760;9.156;2022-08-21T09:42:24;7.90;;;3.47;;
61458;SDS011;47324;48.760;9.156;2022-08-21T09:45:04;9.80;;;3.25;;
61458;SDS011;47324;48.760;9.156;2022-08-21T09:47:32;6.13;;;3.13;;
61458;SDS011;47324;48.760;9.156;2022-08-21T09:50:07;12.05;;;4.50;;
61458;SDS011;47324;48.760;9.156;2022-08-21T09:52:45;11.88;;;3.80;;
61458;SDS011;47324;48.760;9.156;2022-08-21T09:55:46;5.28;;;2.80;;
61458;SDS011;47324;48.760;9.156;2022-08-21T09:58:34;7.70;;;3.45;;
61458;SDS011;47324;48.760;9.156;2022-08-21T10:01:04;8.05;;;3.80;;
61458;SDS011;47324;48.760;9.156;2022-08-21T10:03:31;6.38;;;3.42;;
61458;SDS011;47324;48.760;9.156;2022-08-21T10:08:32;9.50;;;3.92;;
61458;SDS011;47324;48.760;9.156;2022-08-21T10:11:06;18.13;;;13.25;;
61458;SDS011;47324;48.760;9.156;2022-08-21T10:14:02;7.78;;;4.07;;
61458;SDS011;47324;48.760;9.156;2022-08-21T10:19:44;9.10;;;3.70;;
61458;SDS011;47324;48.760;9.156;2022-08-21T10:33:19;7.57;;;3.55;;
61458;SDS011;47324;48.760;9.156;2022-08-21T10:41:40;8.93;;;3.40;;
61458;SDS011;47324;48.760;9.156;2022-08-21T10:44:30;8.80;;;3.92;;
61458;SDS011;47324;48.760;9.156;2022-08-21T10:49:39;10.30;;;4.82;;
61458;SDS011;47324;48.760;9.156;2022-08-21T10:52:32;9.05;;;3.72;;
61458;SDS011;47324;48.760;9.156;2022-08-21T10:55:04;7.05;;;3.42;;
61458;SDS011;47324;48.760;9.156;2022-08-21T10:57:49;7.25;;;3.58;;
61458;SDS011;47324;48.760;9.156;2022-08-21T11:00:21;8.52;;;3.42;;
61458;SDS011;47324;48.760;9.156;2022-08-21T11:02:51;7.38;;;4.25;;
61458;SDS011;47324;48.760;9.156;2022-08-21T11:05:33;7.55;;;3.47;;
61458;SDS011;47324;48.760;9.156;2022-08-21T11:08:15;7.57;;;3.47;;
61458;SDS011;47324;48.760;9.156;2022-08-21T11:10:46;9.23;;;3.45;;
61458;SDS011;47324;48.760;9.156;2022-08-21T11:13:19;6.65;;;3.58;;
61458;SDS011;47324;48.760;9.156;2022-08-21T11:15:56;8.10;;;3.67;;
61458;SDS011;47324;48.760;9.156;2022-08-21T11:18:31;5.22;;;3.00;;
61458;SDS011;47324;48.760;9.156;2022-08-21T11:23:27;6.63;;;3.13;;
61458;SDS011;47324;48.760;9.156;2022-08-21T11:25:59;8.70;;;3.67;;
61458;SDS011;47324;48.760;9.156;2022-08-21T11:28:30;9.57;;;4.07;;
61458;SDS011;47324;48.760;9.156;2022-08-21T11:31:05;7.70;;;4.10;;
61458;SDS011;47324;48.760;9.156;2022-08-21T11:33:47;6.00;;;3.35;;
61458;SDS011;47324;48.760;9.156;2022-08-21T11:36:37;6.30;;;3.47;;
61458;SDS011;47324;48.760;9.156;2022-08-21T11:41:48;7.47;;;3.78;;
61458;SDS011;47324;48.760;9.156;2022-08-21T11:47:23;9.85;;;4.18;;
61458;SDS011;47324;48.760;9.156;2022-08-21T11:50:01;5.78;;;3.28;;
61458;SDS011;47324;48.760;9.156;2022-08-21T11:55:59;6.03;;;2.88;;
61458;SDS011;47324;48.760;9.156;2022-08-21T11:58:31;6.57;;;3.60;;
61458;SDS011;47324;48.760;9.156;2022-08-21T12:01:07;5.88;;;3.42;;
61458;SDS011;47324;48.760;9.156;2022-08-21T12:03:36;9.07;;;3.78;;
61458;SDS011;47324;48.760;9.156;2022-08-21T12:06:06;7.68;;;4.05;;
61458;SDS011;47324;48.760;9.156;2022-08-21T12:08:38;7.72;;;3.67;;
61458;SDS011;47324;48.760;9.156;2022-08-21T12:16:39;5.97;;;3.53;;
61458;SDS011;47324;48.760;9.156;2022-08-21T12:19:09;8.48;;;3.83;;
61458;SDS011;47324;48.760;9.156;2022-08-21T12:21:51;7.15;;;3.33;;
61458;SDS011;47324;48.760;9.156;2022-08-21T12:24:30;6.30;;;3.55;;
61458;SDS011;47324;48.760;9.156;2022-08-21T12:29:47;7.25;;;3.60;;
61458;SDS011;47324;48.760;9.156;2022-08-21T12:34:44;8.70;;;3.67;;
61458;SDS011;47324;48.760;9.156;2022-08-21T12:37:18;6.68;;;2.75;;
61458;SDS011;47324;48.760;9.156;2022-08-21T12:39:49;7.35;;;3.50;;
61458;SDS011;47324;48.760;9.156;2022-08-21T12:42:19;6.82;;;3.10;;
61458;SDS011;47324;48.760;9.156;2022-08-21T12:44:51;7.45;;;3.33;;
61458;SDS011;47324;48.760;9.156;2022-08-21T12:50:23;5.68;;;2.85;;
61458;SDS011;47324;48.760;9.156;2022-08-21T12:52:59;8.13;;;3.80;;
61458;SDS011;47324;48.760;9.156;2022-08-21T12:55:30;9.40;;;3.10;;
61458;SDS011;47324;48.760;9.156;2022-08-21T12:57:57;6.88;;;3.28;;
61458;SDS011;47324;48.760;9.156;2022-08-21T13:00:24;6.93;;;3.65;;
61458;SDS011;47324;48.760;9.156;2022-08-21T13:02:52;7.05;;;3.20;;
61458;SDS011;47324;48.760;9.156;2022-08-21T13:05:32;10.65;;;3.30;;
61458;SDS011;47324;48.760;9.156;2022-08-21T13:08:02;5.97;;;3.15;;
61458;SDS011;47324;48.760;9.156;2022-08-21T13:10:30;6.47;;;3.35;;
61458;SDS011;47324;48.760;9.156;2022-08-21T13:12:59;7.88;;;3.42;;
61458;SDS011;47324;48.760;9.156;2022-08-21T13:15:32;6.88;;;3.53;;
61458;SDS011;47324;48.760;9.156;2022-08-21T13:18:00;6.28;;;3.58;;
61458;SDS011;47324;48.760;9.156;2022-08-21T13:20:32;6.57;;;3.45;;
61458;SDS011;47324;48.760;9.156;2022-08-21T13:23:00;7.40;;;3.50;;
61458;SDS011;47324;48.760;9.156;2022-08-21T13:25:34;5.95;;;2.88;;
61458;SDS011;47324;48.760;9.156;2022-08-21T13:28:09;6.90;;;4.40;;
61458;SDS011;47324;48.760;9.156;2022-08-21T13:30:42;9.70;;;3.53;;
61458;SDS011;47324;48.760;9.156;2022-08-21T13:33:10;6.60;;;3.28;;
61458;SDS011;47324;48.760;9.156;2022-08-21T13:36:01;7.20;;;3.60;;
61458;SDS011;47324;48.760;9.156;2022-08-21T13:38:35;7.05;;;3.70;;
61458;SDS011;47324;48.760;9.156;2022-08-21T13:41:16;5.32;;;2.97;;
61458;SDS011;47324;48.760;9.156;2022-08-21T13:43:56;6.47;;;3.10;;
61458;SDS011;47324;48.760;9.156;2022-08-21T13:46:26;7.03;;;3.47;;
61458;SDS011;47324;48.760;9.156;2022-08-21T13:48:54;6.13;;;3.53;;
61458;SDS011;47324;48.760;9.156;2022-08-21T13:51:20;6.35;;;3.53;;
61458;SDS011;47324;48.760;9.156;2022-08-21T13:53:48;6.10;;;3.17;;
61458;SDS011;47324;48.760;9.156;2022-08-21T13:56:26;6.80;;;3.45;;
61458;SDS011;47324;48.760;9.156;2022-08-21T13:58:57;7.80;;;3.17;;
61458;SDS011;47324;48.760;9.156;2022-08-21T14:01:28;8.98;;;3.22;;
61458;SDS011;47324;48.760;9.156;2022-08-21T14:04:50;6.97;;;3.33;;
61458;SDS011;47324;48.760;9.156;2022-08-21T14:06:50;5.47;;;3.10;;
61458;SDS011;47324;48.760;9.156;2022-08-21T14:12:01;9.30;;;5.60;;
61458;SDS011;47324;48.760;9.156;2022-08-21T14:14:30;10.15;;;6.60;;
61458;SDS011;47324;48.760;9.156;2022-08-21T14:19:25;6.40;;;2.92;;
61458;SDS011;47324;48.760;9.156;2022-08-21T14:21:53;7.35;;;3.90;;
61458;SDS011;47324;48.760;9.156;2022-08-21T14:26:54;6.35;;;3.13;;
61458;SDS011;47324;48.760;9.156;2022-08-21T14:29:27;6.07;;;3.22;;
61458;SDS011;47324;48.760;9.156;2022-08-21T14:31:57;7.65;;;3.15;;
61458;SDS011;47324;48.760;9.156;2022-08-21T14:34:25;6.80;;;2.80;;
61458;SDS011;47324;48.760;9.156;2022-08-21T14:36:55;9.48;;;3.83;;
61458;SDS011;47324;48.760;9.156;2022-08-21T14:39:21;8.07;;;3.60;;
61458;SDS011;47324;48.760;9.156;2022-08-21T14:41:47;8.05;;;3.67;;
61458;SDS011;47324;48.760;9.156;2022-08-21T14:44:14;7.05;;;3.35;;
61458;SDS011;47324;48.760;9.156;2022-08-21T14:46:41;7.10;;;3.53;;
61458;SDS011;47324;48.760;9.156;2022-08-21T14:49:07;8.40;;;3.63;;
61458;SDS011;47324;48.760;9.156;2022-08-21T14:51:33;17.35;;;6.60;;
61458;SDS011;47324;48.760;9.156;2022-08-21T14:53:59;18.40;;;7.38;;
61458;SDS011;47324;48.760;9.156;2022-08-21T14:56:25;14.40;;;6.60;;
61458;SDS011;47324;48.760;9.156;2022-08-21T14:58:51;14.23;;;6.72;;
61458;SDS011;47324;48.760;9.156;2022-08-21T15:01:19;16.58;;;6.88;;
61458;SDS011;47324;48.760;9.156;2022-08-21T15:03:46;11.35;;;5.05;;
61458;SDS011;47324;48.760;9.156;2022-08-21T15:06:14;6.90;;;3.33;;
61458;SDS011;47324;48.760;9.156;2022-08-21T15:08:41;7.90;;;3.90;;
61458;SDS011;47324;48.760;9.156;2022-08-21T15:11:07;8.73;;;3.22;;
61458;SDS011;47324;48.760;9.156;2022-08-21T15:13:36;9.32;;;3.88;;
61458;SDS011;47324;48.760;9.156;2022-08-21T15:16:02;5.82;;;3.22;;
61458;SDS011;47324;48.760;9.156;2022-08-21T15:18:30;7.80;;;3.42;;
61458;SDS011;47324;48.760;9.156;2022-08-21T15:20:56;5.40;;;2.92;;
61458;SDS011;47324;48.760;9.156;2022-08-21T15:23:22;6.55;;;3.40;;
61458;SDS011;47324;48.760;9.156;2022-08-21T15:25:49;7.32;;;3.42;;
61458;SDS011;47324;48.760;9.156;2022-08-21T15:28:15;7.82;;;3.40;;
61458;SDS011;47324;48.760;9.156;2022-08-21T15:30:42;6.35;;;3.22;;
61458;SDS011;47324;48.760;9.156;2022-08-21T15:33:09;8.65;;;3.08;;
61458;SDS011;47324;48.760;9.156;2022-08-21T15:35:35;5.95;;;2.95;;
61458;SDS011;47324;48.760;9.156;2022-08-21T15:38:03;6.53;;;3.20;;
61458;SDS011;47324;48.760;9.156;2022-08-21T15:40:29;6.15;;;2.95;;
61458;SDS011;47324;48.760;9.156;2022-08-21T15:43:02;8.65;;;2.95;;
61458;SDS011;47324;48.760;9.156;2022-08-21T15:45:29;5.95;;;3.20;;
61458;SDS011;47324;48.760;9.156;2022-08-21T15:47:55;6.97;;;2.85;;
61458;SDS011;47324;48.760;9.156;2022-08-21T15:50:21;5.70;;;3.15;;
61458;SDS011;47324;48.760;9.156;2022-08-21T15:52:48;7.13;;;2.88;;
61458;SDS011;47324;48.760;9.156;2022-08-21T15:55:14;4.85;;;2.35;;
61458;SDS011;47324;48.760;9.156;2022-08-21T15:57:43;4.63;;;2.60;;
61458;SDS011;47324;48.760;9.156;2022-08-21T16:00:15;4.32;;;2.35;;
61458;SDS011;47324;48.760;9.156;2022-08-21T16:02:43;6.90;;;2.38;;
61458;SDS011;47324;48.760;9.156;2022-08-21T16:05:12;4.72;;;2.47;;
61458;SDS011;47324;48.760;9.156;2022-08-21T16:07:42;5.75;;;2.40;;
61458;SDS011;47324;48.760;9.156;2022-08-21T16:10:08;5.68;;;2.63;;
61458;SDS011;47324;48.760;9.156;2022-08-21T16:12:37;4.82;;;2.55;;